Terminal Aerodrome Forecast
Issued by NWS Shreveport, LA

Home | Current Version | Previous Version | Text Only | Print | Product List | Glossary On
Versions: 1 2 3 4 5 6 7 8 9 10 11 12 13 14 15 16 17
000
FTUS44 KSHV 171741
TAFTYR
TAF
KTYR 171741Z 1718/1818 17010KT P6SM VCTS SCT040 OVC100CB
      TEMPO 1718/1719 3SM TSRA BR OVC020CB
     FM172000 21010KT P6SM BKN060
     FM180000 15004KT P6SM SCT100
      TEMPO 1809/1813 4SM BR
     FM181300 22008KT P6SM BKN120=

USA.gov is the U.S. government's official web portal to all federal, state and local government web resources and services.